createdAt,value
2022-08-05T00:02:07.992Z,18.22
2022-08-05T00:04:38.399Z,18.14
2022-08-05T00:07:27.063Z,18.20
2022-08-05T00:09:53.362Z,18.19
2022-08-05T00:12:21.337Z,18.11
2022-08-05T00:14:48.342Z,18.13
2022-08-05T00:17:19.591Z,18.08
2022-08-05T00:20:02.599Z,18.07
2022-08-05T00:22:29.877Z,18.01
2022-08-05T00:24:57.293Z,17.97
2022-08-05T00:27:28.514Z,17.87
2022-08-05T00:30:04.963Z,17.88
2022-08-05T00:32:37.802Z,17.83
2022-08-05T00:35:07.862Z,17.81
2022-08-05T00:37:35.612Z,17.77
2022-08-05T00:40:28.179Z,17.79
2022-08-05T00:42:59.364Z,17.76
2022-08-05T00:45:38.046Z,17.73
2022-08-05T00:48:07.031Z,17.72
2022-08-05T00:50:34.250Z,17.62
2022-08-05T00:53:00.577Z,17.63
2022-08-05T00:55:42.217Z,17.64
2022-08-05T00:58:13.861Z,17.55
2022-08-05T01:00:42.213Z,17.52
2022-08-05T01:03:10.309Z,17.53
2022-08-05T01:05:40.311Z,17.46
2022-08-05T01:08:39.826Z,17.69
2022-08-05T01:11:07.499Z,17.76
2022-08-05T01:13:58.765Z,17.73
2022-08-05T01:16:34.717Z,17.79
2022-08-05T01:19:11.111Z,17.84
2022-08-05T01:22:05.368Z,17.88
2022-08-05T01:24:50.089Z,17.93
2022-08-05T01:27:50.549Z,17.91
2022-08-05T01:30:34.675Z,17.80
2022-08-05T01:33:03.861Z,17.70
2022-08-05T01:35:50.836Z,17.47
2022-08-05T01:38:24.737Z,17.48
2022-08-05T01:40:54.542Z,17.50
2022-08-05T01:43:24.153Z,17.57
2022-08-05T01:45:54.089Z,17.48
2022-08-05T01:48:25.375Z,17.44
2022-08-05T01:50:52.490Z,17.40
2022-08-05T01:53:54.500Z,17.34
2022-08-05T01:56:09.656Z,17.28
2022-08-05T01:58:41.036Z,17.21
2022-08-05T02:01:24.553Z,17.11
2022-08-05T02:03:53.331Z,17.04
2022-08-05T02:06:37.355Z,17.06
2022-08-05T02:09:05.729Z,16.93
2022-08-05T02:11:52.558Z,16.96
2022-08-05T02:14:28.054Z,16.98
2022-08-05T02:16:55.612Z,16.98
2022-08-05T02:19:28.330Z,16.91
2022-08-05T02:22:04.331Z,16.85
2022-08-05T02:24:37.551Z,16.81
2022-08-05T02:27:09.870Z,16.76
2022-08-05T02:29:58.921Z,16.71
2022-08-05T02:32:29.428Z,16.57
2022-08-05T02:35:13.353Z,16.54
2022-08-05T02:37:47.723Z,16.59
2022-08-05T02:40:21.481Z,16.51
2022-08-05T02:42:52.774Z,16.52
2022-08-05T02:45:20.189Z,16.48
2022-08-05T02:48:07.458Z,16.46
2022-08-05T02:50:38.985Z,16.43
2022-08-05T02:53:15.955Z,16.34
2022-08-05T02:55:53.764Z,16.41
2022-08-05T02:58:23.233Z,16.38
2022-08-05T03:00:55.618Z,16.28
2022-08-05T03:03:23.613Z,16.38
2022-08-05T03:06:56.395Z,16.19
2022-08-05T03:08:39.098Z,16.36
2022-08-05T03:11:54.861Z,16.35
2022-08-05T03:14:24.337Z,16.29
2022-08-05T03:16:53.482Z,16.28
2022-08-05T03:19:34.579Z,16.22
2022-08-05T03:22:04.747Z,16.11
2022-08-05T03:24:44.780Z,16.03
2022-08-05T03:27:14.316Z,15.96
2022-08-05T03:29:44.837Z,16.22
2022-08-05T03:32:31.059Z,16.25
2022-08-05T03:34:57.801Z,16.21
2022-08-05T03:37:24.945Z,16.20
2022-08-05T03:39:58.746Z,16.19
2022-08-05T03:42:29.074Z,16.22
2022-08-05T03:44:56.007Z,16.21
2022-08-05T03:47:23.584Z,16.18
2022-08-05T03:49:51.282Z,16.19
2022-08-05T03:52:50.258Z,16.16
2022-08-05T03:56:03.748Z,16.22
2022-08-05T03:58:05.667Z,16.38
2022-08-05T04:00:32.498Z,16.36
2022-08-05T04:03:00.536Z,16.45
2022-08-05T04:05:33.753Z,16.44
2022-08-05T04:08:14.585Z,16.44
2022-08-05T04:10:50.189Z,16.56
2022-08-05T04:13:18.583Z,16.74
2022-08-05T04:15:52.599Z,16.80
2022-08-05T04:18:30.285Z,16.93
2022-08-05T04:20:57.661Z,16.91
2022-08-05T04:24:04.960Z,16.91
2022-08-05T04:26:14.285Z,16.93
2022-08-05T04:28:51.235Z,16.96
2022-08-05T04:31:19.894Z,17.08
2022-08-05T04:34:17.119Z,17.17
2022-08-05T04:36:45.892Z,17.23
2022-08-05T04:39:15.926Z,17.24
2022-08-05T04:41:42.537Z,17.35
2022-08-05T04:44:10.693Z,17.38
2022-08-05T04:46:38.491Z,17.42
2022-08-05T04:49:12.139Z,17.50
2022-08-05T04:51:41.027Z,17.58
2022-08-05T04:54:09.340Z,17.75
2022-08-05T04:56:37.338Z,17.86
2022-08-05T04:59:21.667Z,17.94
2022-08-05T05:02:35.198Z,18.00
2022-08-05T05:04:38.382Z,17.98
2022-08-05T05:07:11.613Z,18.06
2022-08-05T05:09:42.283Z,18.37
2022-08-05T05:12:11.534Z,18.40
2022-08-05T05:14:38.073Z,18.50
2022-08-05T05:17:22.734Z,18.58
2022-08-05T05:19:50.432Z,18.72
2022-08-05T05:22:23.591Z,18.78
2022-08-05T05:24:56.916Z,18.92
2022-08-05T05:27:41.600Z,19.01
2022-08-05T05:30:30.659Z,19.13
2022-08-05T05:33:14.104Z,19.22
2022-08-05T05:35:43.621Z,19.30
2022-08-05T05:38:13.374Z,19.39
2022-08-05T05:40:43.846Z,19.59
2022-08-05T05:43:27.806Z,19.58
2022-08-05T05:46:05.085Z,19.82
2022-08-05T05:48:32.476Z,20.02
2022-08-05T05:51:14.753Z,20.10
2022-08-05T05:53:54.665Z,20.29
2022-08-05T05:56:32.825Z,20.42
2022-08-05T05:59:06.695Z,20.61
2022-08-05T06:01:37.495Z,20.70
2022-08-05T06:04:11.871Z,20.87
2022-08-05T06:06:42.887Z,20.99
2022-08-05T06:09:16.603Z,21.20
2022-08-05T06:11:59.259Z,21.34
2022-08-05T06:14:27.985Z,21.46
2022-08-05T06:16:55.245Z,21.69
2022-08-05T06:19:32.916Z,21.82
2022-08-05T06:22:03.108Z,21.98
2022-08-05T06:24:29.660Z,21.98
2022-08-05T06:26:57.428Z,22.26
2022-08-05T06:29:46.948Z,22.45
2022-08-05T06:32:25.037Z,22.57
2022-08-05T06:34:56.838Z,22.74
2022-08-05T06:37:52.276Z,22.92
2022-08-05T06:40:11.898Z,23.27
2022-08-05T06:42:39.885Z,23.99
2022-08-05T06:45:08.909Z,24.62
2022-08-05T06:48:37.245Z,25.33
2022-08-05T06:50:22.949Z,25.90
2022-08-05T06:53:03.971Z,26.27
2022-08-05T06:55:36.836Z,26.92
2022-08-05T06:58:19.938Z,27.60
2022-08-05T07:00:50.928Z,27.80
2022-08-05T07:03:17.858Z,27.93
2022-08-05T07:05:44.715Z,27.94
2022-08-05T07:08:12.771Z,28.26
2022-08-05T07:10:53.379Z,28.30
2022-08-05T07:13:57.628Z,28.65
2022-08-05T07:17:56.727Z,28.73
2022-08-05T07:20:16.898Z,29.33
2022-08-05T07:22:17.587Z,29.80
2022-08-05T07:24:52.650Z,29.75
2022-08-05T07:27:20.335Z,29.97
2022-08-05T07:30:22.250Z,30.55
2022-08-05T07:32:38.695Z,30.89
2022-08-05T07:36:04.525Z,30.86
2022-08-05T07:37:55.946Z,31.31
2022-08-05T07:40:27.111Z,31.66
2022-08-05T07:42:59.461Z,31.66
2022-08-05T07:45:58.014Z,31.93
2022-08-05T07:49:00.564Z,32.36
2022-08-05T07:51:04.796Z,32.91
2022-08-05T07:53:50.522Z,32.68
2022-08-05T07:57:00.441Z,33.01
2022-08-05T07:59:04.676Z,33.60
2022-08-05T08:01:34.970Z,33.36
2022-08-05T08:04:03.127Z,34.02
2022-08-05T08:06:32.643Z,34.23
2022-08-05T08:08:59.806Z,34.68
2022-08-05T08:11:49.519Z,34.58
2022-08-05T08:14:18.203Z,34.76
2022-08-05T08:16:50.993Z,35.04
2022-08-05T08:20:21.494Z,34.93
2022-08-05T08:22:04.827Z,35.31
2022-08-05T08:24:51.525Z,35.08
2022-08-05T08:27:18.491Z,35.56
2022-08-05T08:30:03.608Z,35.56
2022-08-05T08:32:34.231Z,36.08
2022-08-05T08:35:07.356Z,36.13
2022-08-05T08:37:40.323Z,36.58
2022-08-05T08:40:11.999Z,36.78
2022-08-05T08:42:50.345Z,37.06
2022-08-05T08:45:26.977Z,37.16
2022-08-05T08:48:10.461Z,37.59
2022-08-05T08:51:07.746Z,36.48
2022-08-05T08:53:36.421Z,37.40
2022-08-05T08:56:06.030Z,37.51
2022-08-05T08:58:43.949Z,37.77
2022-08-05T09:01:15.883Z,37.85
2022-08-05T09:03:46.176Z,38.00
2022-08-05T09:06:18.514Z,37.98
2022-08-05T09:08:47.458Z,38.49
2022-08-05T09:11:15.383Z,38.65
2022-08-05T09:14:00.888Z,38.51
2022-08-05T09:16:32.259Z,39.03
2022-08-05T09:18:59.633Z,38.92
2022-08-05T09:22:22.143Z,38.36
2022-08-05T09:24:15.438Z,38.90
2022-08-05T09:26:43.763Z,39.19
2022-08-05T09:29:10.635Z,39.71
2022-08-05T09:32:46.501Z,39.35
2022-08-05T09:34:47.200Z,39.27
2022-08-05T09:38:13.030Z,39.19
2022-08-05T09:40:07.790Z,39.68
2022-08-05T09:42:43.673Z,39.45
2022-08-05T09:46:04.525Z,39.71
2022-08-05T09:48:01.552Z,39.95
2022-08-05T09:50:44.800Z,40.13
2022-08-05T09:53:22.981Z,40.39
2022-08-05T09:56:04.673Z,40.46
2022-08-05T09:58:37.984Z,40.54
2022-08-05T10:01:14.649Z,41.00
2022-08-05T10:04:00.137Z,40.66
2022-08-05T10:06:27.916Z,40.68
2022-08-05T10:08:55.638Z,41.06
2022-08-05T10:11:22.926Z,40.40
2022-08-05T10:13:49.567Z,40.11
2022-08-05T10:16:29.935Z,40.20
2022-08-05T10:18:56.570Z,40.43
2022-08-05T10:21:23.922Z,41.17
2022-08-05T10:23:58.775Z,41.72
2022-08-05T10:26:32.375Z,41.50
2022-08-05T10:28:59.380Z,41.33
2022-08-05T10:32:55.165Z,41.19
2022-08-05T10:34:12.431Z,40.53
2022-08-05T10:36:41.389Z,40.30
2022-08-05T10:39:15.340Z,40.69
2022-08-05T10:42:14.503Z,40.53
2022-08-05T10:44:46.140Z,41.00
2022-08-05T10:47:26.805Z,40.66
2022-08-05T10:50:32.863Z,40.21
2022-08-05T10:53:04.017Z,40.34
2022-08-05T10:55:38.443Z,40.55
2022-08-05T10:58:20.539Z,40.49
2022-08-05T11:00:48.120Z,40.48
2022-08-05T11:03:25.226Z,40.45
2022-08-05T11:06:20.065Z,40.83
2022-08-05T11:09:24.478Z,41.19
2022-08-05T11:12:06.329Z,40.64
2022-08-05T11:18:00.118Z,41.35
2022-08-05T11:20:41.556Z,40.78
2022-08-05T11:24:02.818Z,40.02
2022-08-05T11:26:28.626Z,40.08
2022-08-05T11:29:06.675Z,40.36
2022-08-05T11:31:56.271Z,40.20
2022-08-05T11:34:51.257Z,40.21
2022-08-05T11:38:28.889Z,40.26
2022-08-05T11:41:12.970Z,40.15
2022-08-05T11:44:05.874Z,39.85
2022-08-05T11:46:37.528Z,39.97
2022-08-05T11:49:05.487Z,40.36
2022-08-05T11:51:44.410Z,40.20
2022-08-05T11:54:33.720Z,40.40
2022-08-05T11:57:08.561Z,39.73
